sensor_id;sensor_type;location;lat;lon;timestamp;pressure;altitude;pressure_sealevel;temperature;humidity
45864;BME280;31579;52.354;16.974;2022-11-15T00:00:04;412.4;;;-146.1;100.0
45864;BME280;31579;52.354;16.974;2022-11-15T00:01:23;421.1;;;-146.1;100.0
45864;BME280;31579;52.354;16.974;2022-11-15T00:02:27;398.9;;;-146.1;100.0
45864;BME280;31579;52.354;16.974;2022-11-15T00:03:30;335.9;;;-146.1;100.0
45864;BME280;31579;52.354;16.974;2022-11-15T00:04:33;362.4;;;-146.1;100.0
45864;BME280;31579;52.354;16.974;2022-11-15T00:05:37;392.8;;;-146.1;100.0
45864;BME280;31579;52.354;16.974;2022-11-15T00:06:40;383.2;;;-146.1;100.0
45864;BME280;31579;52.354;16.974;2022-11-15T00:07:44;390.9;;;-146.1;100.0
45864;BME280;31579;52.354;16.974;2022-11-15T00:08:48;393.4;;;-146.1;100.0
45864;BME280;31579;52.354;16.974;2022-11-15T00:09:51;370.5;;;-146.1;100.0
45864;BME280;31579;52.354;16.974;2022-11-15T00:10:55;405.0;;;-146.1;100.0
45864;BME280;31579;52.354;16.974;2022-11-15T00:11:57;442.2;;;-146.1;100.0
45864;BME280;31579;52.354;16.974;2022-11-15T00:14:04;434.2;;;-146.1;100.0
45864;BME280;31579;52.354;16.974;2022-11-15T00:15:07;465.0;;;-146.1;100.0
45864;BME280;31579;52.354;16.974;2022-11-15T00:16:11;407.8;;;-146.1;100.0
45864;BME280;31579;52.354;16.974;2022-11-15T00:17:15;388.4;;;-146.1;100.0
45864;BME280;31579;52.354;16.974;2022-11-15T00:18:18;429.7;;;-146.1;100.0
45864;BME280;31579;52.354;16.974;2022-11-15T00:19:20;500.5;;;-146.1;100.0
45864;BME280;31579;52.354;16.974;2022-11-15T00:20:24;471.4;;;-146.1;100.0
45864;BME280;31579;52.354;16.974;2022-11-15T00:21:28;432.4;;;-146.1;100.0
45864;BME280;31579;52.354;16.974;2022-11-15T00:22:32;480.2;;;-146.1;100.0
45864;BME280;31579;52.354;16.974;2022-11-15T00:23:35;430.0;;;-146.1;100.0
45864;BME280;31579;52.354;16.974;2022-11-15T00:24:39;402.0;;;-146.1;100.0
45864;BME280;31579;52.354;16.974;2022-11-15T00:25:43;385.1;;;-146.1;100.0
45864;BME280;31579;52.354;16.974;2022-11-15T00:26:47;375.6;;;-146.1;100.0
45864;BME280;31579;52.354;16.974;2022-11-15T00:27:50;435.7;;;-146.1;100.0
45864;BME280;31579;52.354;16.974;2022-11-15T00:28:54;394.8;;;-146.1;100.0
45864;BME280;31579;52.354;16.974;2022-11-15T00:29:58;382.5;;;-146.1;100.0
45864;BME280;31579;52.354;16.974;2022-11-15T00:31:09;410.7;;;-146.1;100.0
45864;BME280;31579;52.354;16.974;2022-11-15T00:32:12;376.4;;;-146.1;100.0
45864;BME280;31579;52.354;16.974;2022-11-15T00:33:16;367.6;;;-146.1;100.0
45864;BME280;31579;52.354;16.974;2022-11-15T00:34:19;427.6;;;-146.1;100.0
45864;BME280;31579;52.354;16.974;2022-11-15T00:35:23;389.4;;;-146.1;100.0
45864;BME280;31579;52.354;16.974;2022-11-15T00:36:27;380.7;;;-146.1;100.0
45864;BME280;31579;52.354;16.974;2022-11-15T00:37:31;377.4;;;-146.1;100.0
45864;BME280;31579;52.354;16.974;2022-11-15T00:38:34;414.5;;;-146.1;100.0
45864;BME280;31579;52.354;16.974;2022-11-15T00:39:50;355.6;;;-146.1;100.0
45864;BME280;31579;52.354;16.974;2022-11-15T00:40:54;382.6;;;-146.1;100.0
45864;BME280;31579;52.354;16.974;2022-11-15T00:41:58;383.8;;;-146.1;100.0
45864;BME280;31579;52.354;16.974;2022-11-15T00:43:02;385.2;;;-146.1;100.0
45864;BME280;31579;52.354;16.974;2022-11-15T00:44:06;386.6;;;-146.1;100.0
45864;BME280;31579;52.354;16.974;2022-11-15T00:45:10;382.0;;;-146.1;100.0
45864;BME280;31579;52.354;16.974;2022-11-15T00:46:14;384.8;;;-146.1;100.0
45864;BME280;31579;52.354;16.974;2022-11-15T00:47:18;386.0;;;-146.1;100.0
45864;BME280;31579;52.354;16.974;2022-11-15T00:48:22;387.5;;;-146.1;100.0
45864;BME280;31579;52.354;16.974;2022-11-15T00:49:26;388.7;;;-146.1;100.0
45864;BME280;31579;52.354;16.974;2022-11-15T00:50:30;390.4;;;-146.1;100.0
45864;BME280;31579;52.354;16.974;2022-11-15T00:51:34;392.2;;;-146.1;100.0
45864;BME280;31579;52.354;16.974;2022-11-15T00:52:38;392.8;;;-146.1;100.0
45864;BME280;31579;52.354;16.974;2022-11-15T00:53:42;395.7;;;-146.1;100.0
45864;BME280;31579;52.354;16.974;2022-11-15T00:54:47;402.4;;;-146.1;100.0
45864;BME280;31579;52.354;16.974;2022-11-15T00:55:50;342.5;;;-146.1;100.0
45864;BME280;31579;52.354;16.974;2022-11-15T00:56:54;396.4;;;-146.1;100.0
45864;BME280;31579;52.354;16.974;2022-11-15T00:57:58;400.3;;;-146.1;100.0
45864;BME280;31579;52.354;16.974;2022-11-15T00:59:02;401.0;;;-146.1;100.0
45864;BME280;31579;52.354;16.974;2022-11-15T01:00:06;401.4;;;-146.1;100.0
45864;BME280;31579;52.354;16.974;2022-11-15T01:01:11;402.1;;;-146.1;100.0
45864;BME280;31579;52.354;16.974;2022-11-15T01:02:14;402.0;;;-146.1;100.0
45864;BME280;31579;52.354;16.974;2022-11-15T01:03:18;352.3;;;-146.1;100.0
45864;BME280;31579;52.354;16.974;2022-11-15T01:04:22;397.7;;;-146.1;100.0
45864;BME280;31579;52.354;16.974;2022-11-15T01:05:26;399.1;;;-146.1;100.0
45864;BME280;31579;52.354;16.974;2022-11-15T01:06:30;399.6;;;-146.1;100.0
45864;BME280;31579;52.354;16.974;2022-11-15T01:07:34;399.2;;;-146.1;100.0
45864;BME280;31579;52.354;16.974;2022-11-15T01:08:39;351.0;;;-146.1;100.0
45864;BME280;31579;52.354;16.974;2022-11-15T01:09:40;383.4;;;-146.1;100.0
45864;BME280;31579;52.354;16.974;2022-11-15T01:10:44;393.0;;;-146.1;100.0
45864;BME280;31579;52.354;16.974;2022-11-15T01:11:46;475.8;;;-146.1;100.0
45864;BME280;31579;52.354;16.974;2022-11-15T01:12:50;483.7;;;-146.1;100.0
45864;BME280;31579;52.354;16.974;2022-11-15T01:13:54;425.3;;;-146.1;100.0
45864;BME280;31579;52.354;16.974;2022-11-15T01:14:58;393.0;;;-146.1;100.0
45864;BME280;31579;52.354;16.974;2022-11-15T01:17:06;382.2;;;-146.1;100.0
45864;BME280;31579;52.354;16.974;2022-11-15T01:18:09;374.8;;;-146.1;100.0
45864;BME280;31579;52.354;16.974;2022-11-15T01:19:13;383.7;;;-146.1;100.0
45864;BME280;31579;52.354;16.974;2022-11-15T01:20:16;375.9;;;-146.1;100.0
45864;BME280;31579;52.354;16.974;2022-11-15T01:21:20;386.6;;;-146.1;100.0
45864;BME280;31579;52.354;16.974;2022-11-15T01:22:23;378.6;;;-146.1;100.0
45864;BME280;31579;52.354;16.974;2022-11-15T01:23:26;409.2;;;-146.1;100.0
45864;BME280;31579;52.354;16.974;2022-11-15T01:24:30;387.6;;;-146.1;100.0
45864;BME280;31579;52.354;16.974;2022-11-15T01:25:34;391.5;;;-146.1;100.0
45864;BME280;31579;52.354;16.974;2022-11-15T01:26:37;365.3;;;-146.1;100.0
45864;BME280;31579;52.354;16.974;2022-11-15T01:27:41;391.0;;;-146.1;100.0
45864;BME280;31579;52.354;16.974;2022-11-15T01:28:45;395.7;;;-146.1;100.0
45864;BME280;31579;52.354;16.974;2022-11-15T01:29:47;413.4;;;-146.1;100.0
45864;BME280;31579;52.354;16.974;2022-11-15T01:30:51;435.6;;;-146.1;100.0
45864;BME280;31579;52.354;16.974;2022-11-15T01:31:54;452.4;;;-146.1;100.0
45864;BME280;31579;52.354;16.974;2022-11-15T01:32:58;393.3;;;-146.1;100.0
45864;BME280;31579;52.354;16.974;2022-11-15T01:34:02;384.3;;;-146.1;100.0
45864;BME280;31579;52.354;16.974;2022-11-15T01:35:06;385.9;;;-146.1;100.0
45864;BME280;31579;52.354;16.974;2022-11-15T01:36:11;367.2;;;-146.1;100.0
45864;BME280;31579;52.354;16.974;2022-11-15T01:37:13;397.0;;;-146.1;100.0
45864;BME280;31579;52.354;16.974;2022-11-15T01:38:16;422.4;;;-146.1;100.0
45864;BME280;31579;52.354;16.974;2022-11-15T01:39:20;384.5;;;-146.1;100.0
45864;BME280;31579;52.354;16.974;2022-11-15T01:40:24;383.4;;;-146.1;100.0
45864;BME280;31579;52.354;16.974;2022-11-15T01:41:30;386.5;;;-146.1;100.0
45864;BME280;31579;52.354;16.974;2022-11-15T01:42:32;388.5;;;-146.1;100.0
45864;BME280;31579;52.354;16.974;2022-11-15T01:43:35;346.7;;;-146.1;100.0
45864;BME280;31579;52.354;16.974;2022-11-15T01:44:39;377.7;;;-146.1;100.0
45864;BME280;31579;52.354;16.974;2022-11-15T01:45:41;404.8;;;-146.1;100.0
45864;BME280;31579;52.354;16.974;2022-11-15T01:46:45;434.8;;;-146.1;100.0
45864;BME280;31579;52.354;16.974;2022-11-15T01:47:47;496.2;;;-146.1;100.0
45864;BME280;31579;52.354;16.974;2022-11-15T01:49:05;381.1;;;-146.1;100.0
45864;BME280;31579;52.354;16.974;2022-11-15T01:50:19;389.0;;;-146.1;100.0
45864;BME280;31579;52.354;16.974;2022-11-15T01:51:11;422.7;;;-146.1;100.0
45864;BME280;31579;52.354;16.974;2022-11-15T01:52:15;448.7;;;-146.1;100.0
45864;BME280;31579;52.354;16.974;2022-11-15T01:53:16;464.4;;;-146.1;100.0
45864;BME280;31579;52.354;16.974;2022-11-15T01:54:20;478.2;;;-146.1;100.0
45864;BME280;31579;52.354;16.974;2022-11-15T01:55:25;484.3;;;-146.1;100.0
45864;BME280;31579;52.354;16.974;2022-11-15T01:56:26;488.9;;;-146.1;100.0
45864;BME280;31579;52.354;16.974;2022-11-15T01:57:28;491.6;;;-146.1;100.0
45864;BME280;31579;52.354;16.974;2022-11-15T01:58:31;493.1;;;-146.1;100.0
45864;BME280;31579;52.354;16.974;2022-11-15T01:59:34;494.8;;;-146.1;100.0
45864;BME280;31579;52.354;16.974;2022-11-15T02:00:37;496.8;;;-146.1;100.0
45864;BME280;31579;52.354;16.974;2022-11-15T02:01:40;498.0;;;-146.1;100.0
45864;BME280;31579;52.354;16.974;2022-11-15T02:02:43;499.1;;;-146.1;100.0
45864;BME280;31579;52.354;16.974;2022-11-15T02:04:49;500.4;;;-146.1;100.0
45864;BME280;31579;52.354;16.974;2022-11-15T02:05:52;500.8;;;-146.1;100.0
45864;BME280;31579;52.354;16.974;2022-11-15T02:06:55;501.7;;;-146.1;100.0
45864;BME280;31579;52.354;16.974;2022-11-15T02:07:59;501.0;;;-146.1;100.0
45864;BME280;31579;52.354;16.974;2022-11-15T02:09:00;507.9;;;-146.1;100.0
45864;BME280;31579;52.354;16.974;2022-11-15T02:11:07;506.7;;;-146.1;100.0
45864;BME280;31579;52.354;16.974;2022-11-15T02:12:10;496.9;;;-146.1;100.0
45864;BME280;31579;52.354;16.974;2022-11-15T02:13:15;477.7;;;-146.1;100.0
45864;BME280;31579;52.354;16.974;2022-11-15T02:14:18;493.9;;;-146.1;100.0
45864;BME280;31579;52.354;16.974;2022-11-15T02:15:22;447.5;;;-146.1;100.0
45864;BME280;31579;52.354;16.974;2022-11-15T02:18:32;491.8;;;-146.1;100.0
45864;BME280;31579;52.354;16.974;2022-11-15T02:33:21;493.0;;;-146.1;100.0
45864;BME280;31579;52.354;16.974;2022-11-15T02:40:46;488.7;;;-146.1;100.0
45864;BME280;31579;52.354;16.974;2022-11-15T02:44:53;474.5;;;-146.1;100.0
45864;BME280;31579;52.354;16.974;2022-11-15T02:47:01;487.6;;;-146.1;100.0
45864;BME280;31579;52.354;16.974;2022-11-15T02:48:02;489.4;;;-146.1;100.0
45864;BME280;31579;52.354;16.974;2022-11-15T02:49:05;492.9;;;-146.1;100.0
45864;BME280;31579;52.354;16.974;2022-11-15T02:50:10;495.3;;;-146.1;100.0
45864;BME280;31579;52.354;16.974;2022-11-15T02:51:11;495.3;;;-146.1;100.0
45864;BME280;31579;52.354;16.974;2022-11-15T02:52:16;495.7;;;-146.1;100.0
45864;BME280;31579;52.354;16.974;2022-11-15T02:53:23;495.6;;;-146.1;100.0
45864;BME280;31579;52.354;16.974;2022-11-15T02:54:24;495.8;;;-146.1;100.0
45864;BME280;31579;52.354;16.974;2022-11-15T02:56:28;495.2;;;-146.1;100.0
45864;BME280;31579;52.354;16.974;2022-11-15T03:04:57;496.8;;;-146.1;100.0
45864;BME280;31579;52.354;16.974;2022-11-15T03:09:13;484.5;;;-146.1;100.0
45864;BME280;31579;52.354;16.974;2022-11-15T03:10:17;489.4;;;-146.1;100.0
45864;BME280;31579;52.354;16.974;2022-11-15T03:11:15;423.3;;;-146.1;100.0
45864;BME280;31579;52.354;16.974;2022-11-15T03:13:27;475.9;;;-146.1;100.0
45864;BME280;31579;52.354;16.974;2022-11-15T03:14:25;479.6;;;-146.1;100.0
45864;BME280;31579;52.354;16.974;2022-11-15T03:15:29;481.7;;;-146.1;100.0
45864;BME280;31579;52.354;16.974;2022-11-15T03:17:34;482.8;;;-146.1;100.0
45864;BME280;31579;52.354;16.974;2022-11-15T03:18:37;482.8;;;-146.1;100.0
45864;BME280;31579;52.354;16.974;2022-11-15T03:20:42;479.7;;;-146.1;100.0
45864;BME280;31579;52.354;16.974;2022-11-15T03:21:44;478.1;;;-146.1;100.0
45864;BME280;31579;52.354;16.974;2022-11-15T03:22:48;479.4;;;-146.1;100.0
45864;BME280;31579;52.354;16.974;2022-11-15T03:23:50;476.6;;;-146.1;100.0
45864;BME280;31579;52.354;16.974;2022-11-15T03:24:54;474.7;;;-146.1;100.0
45864;BME280;31579;52.354;16.974;2022-11-15T03:25:57;473.7;;;-146.1;100.0
45864;BME280;31579;52.354;16.974;2022-11-15T03:26:59;475.6;;;-146.1;100.0
45864;BME280;31579;52.354;16.974;2022-11-15T03:28:03;474.5;;;-146.1;100.0
45864;BME280;31579;52.354;16.974;2022-11-15T03:30:09;473.5;;;-146.1;100.0
45864;BME280;31579;52.354;16.974;2022-11-15T03:31:12;473.5;;;-146.1;100.0
45864;BME280;31579;52.354;16.974;2022-11-15T03:32:17;469.8;;;-146.1;100.0
45864;BME280;31579;52.354;16.974;2022-11-15T03:33:18;470.4;;;-146.1;100.0
45864;BME280;31579;52.354;16.974;2022-11-15T03:35:25;471.0;;;-146.1;100.0
45864;BME280;31579;52.354;16.974;2022-11-15T03:36:26;464.9;;;-146.1;100.0
45864;BME280;31579;52.354;16.974;2022-11-15T03:37:36;466.0;;;-146.1;100.0
45864;BME280;31579;52.354;16.974;2022-11-15T03:38:32;461.6;;;-146.1;100.0
45864;BME280;31579;52.354;16.974;2022-11-15T03:39:35;462.8;;;-146.1;100.0
45864;BME280;31579;52.354;16.974;2022-11-15T03:40:39;458.7;;;-146.1;100.0
45864;BME280;31579;52.354;16.974;2022-11-15T03:48:01;442.8;;;-146.1;100.0
45864;BME280;31579;52.354;16.974;2022-11-15T03:50:11;486.6;;;-146.1;100.0
45864;BME280;31579;52.354;16.974;2022-11-15T03:51:10;481.1;;;-146.1;100.0
45864;BME280;31579;52.354;16.974;2022-11-15T03:52:17;475.9;;;-146.1;100.0
45864;BME280;31579;52.354;16.974;2022-11-15T03:53:17;473.6;;;-146.1;100.0
45864;BME280;31579;52.354;16.974;2022-11-15T03:54:20;470.9;;;-146.1;100.0
45864;BME280;31579;52.354;16.974;2022-11-15T03:55:24;464.8;;;-146.1;100.0
45864;BME280;31579;52.354;16.974;2022-11-15T03:56:26;464.4;;;-146.1;100.0
45864;BME280;31579;52.354;16.974;2022-11-15T03:57:29;465.6;;;-146.1;100.0
45864;BME280;31579;52.354;16.974;2022-11-15T03:58:32;466.0;;;-146.1;100.0
45864;BME280;31579;52.354;16.974;2022-11-15T03:59:35;464.6;;;-146.1;100.0
45864;BME280;31579;52.354;16.974;2022-11-15T04:00:38;467.3;;;-146.1;100.0
45864;BME280;31579;52.354;16.974;2022-11-15T04:01:41;463.2;;;-146.1;100.0
45864;BME280;31579;52.354;16.974;2022-11-15T04:02:45;465.0;;;-146.1;100.0
45864;BME280;31579;52.354;16.974;2022-11-15T04:03:47;466.8;;;-146.1;100.0
45864;BME280;31579;52.354;16.974;2022-11-15T04:04:50;461.7;;;-146.1;100.0
45864;BME280;31579;52.354;16.974;2022-11-15T04:05:53;459.6;;;-146.1;100.0
45864;BME280;31579;52.354;16.974;2022-11-15T04:06:56;461.3;;;-146.1;100.0
45864;BME280;31579;52.354;16.974;2022-11-15T04:07:59;462.1;;;-146.1;100.0
45864;BME280;31579;52.354;16.974;2022-11-15T04:09:09;344.9;;;-146.1;100.0
45864;BME280;31579;52.354;16.974;2022-11-15T04:10:12;339.0;;;-146.1;100.0
45864;BME280;31579;52.354;16.974;2022-11-15T04:11:15;363.4;;;-146.1;100.0
45864;BME280;31579;52.354;16.974;2022-11-15T04:12:18;383.0;;;-146.1;100.0
45864;BME280;31579;52.354;16.974;2022-11-15T04:13:21;399.0;;;-146.1;100.0
45864;BME280;31579;52.354;16.974;2022-11-15T04:14:24;410.8;;;-146.1;100.0
45864;BME280;31579;52.354;16.974;2022-11-15T04:15:26;418.5;;;-146.1;100.0
45864;BME280;31579;52.354;16.974;2022-11-15T04:16:29;425.0;;;-146.1;100.0
45864;BME280;31579;52.354;16.974;2022-11-15T04:18:36;437.9;;;-146.1;100.0
45864;BME280;31579;52.354;16.974;2022-11-15T04:19:39;441.0;;;-146.1;100.0
45864;BME280;31579;52.354;16.974;2022-11-15T04:20:42;441.9;;;-146.1;100.0
45864;BME280;31579;52.354;16.974;2022-11-15T04:21:45;445.0;;;-146.1;100.0
45864;BME280;31579;52.354;16.974;2022-11-15T04:22:48;445.3;;;-146.1;100.0
45864;BME280;31579;52.354;16.974;2022-11-15T04:23:51;444.8;;;-146.1;100.0
45864;BME280;31579;52.354;16.974;2022-11-15T04:24:55;448.1;;;-146.1;100.0
45864;BME280;31579;52.354;16.974;2022-11-15T04:25:58;448.3;;;-146.1;100.0
45864;BME280;31579;52.354;16.974;2022-11-15T04:27:02;360.9;;;-146.1;100.0
45864;BME280;31579;52.354;16.974;2022-11-15T04:28:06;337.6;;;-146.1;100.0
45864;BME280;31579;52.354;16.974;2022-11-15T04:29:10;342.9;;;-146.1;100.0
45864;BME280;31579;52.354;16.974;2022-11-15T04:30:13;354.6;;;-146.1;100.0
45864;BME280;31579;52.354;16.974;2022-11-15T04:31:16;364.3;;;-146.1;100.0
45864;BME280;31579;52.354;16.974;2022-11-15T04:32:20;382.2;;;-146.1;100.0
45864;BME280;31579;52.354;16.974;2022-11-15T04:33:23;389.4;;;-146.1;100.0
45864;BME280;31579;52.354;16.974;2022-11-15T04:34:26;400.0;;;-146.1;100.0
45864;BME280;31579;52.354;16.974;2022-11-15T04:35:29;404.2;;;-146.1;100.0
45864;BME280;31579;52.354;16.974;2022-11-15T04:36:32;414.3;;;-146.1;100.0
45864;BME280;31579;52.354;16.974;2022-11-15T04:37:35;415.3;;;-146.1;100.0
45864;BME280;31579;52.354;16.974;2022-11-15T04:38:38;423.5;;;-146.1;100.0
45864;BME280;31579;52.354;16.974;2022-11-15T04:39:41;422.8;;;-146.1;100.0
45864;BME280;31579;52.354;16.974;2022-11-15T04:40:44;431.4;;;-146.1;100.0
45864;BME280;31579;52.354;16.974;2022-11-15T04:41:47;434.7;;;-146.1;100.0
45864;BME280;31579;52.354;16.974;2022-11-15T04:42:50;439.7;;;-146.1;100.0
45864;BME280;31579;52.354;16.974;2022-11-15T04:43:53;440.7;;;-146.1;100.0
45864;BME280;31579;52.354;16.974;2022-11-15T04:44:56;442.5;;;-146.1;100.0
45864;BME280;31579;52.354;16.974;2022-11-15T04:46:00;358.4;;;-146.1;100.0
45864;BME280;31579;52.354;16.974;2022-11-15T04:47:03;390.7;;;-146.1;100.0
45864;BME280;31579;52.354;16.974;2022-11-15T04:48:05;483.2;;;-146.1;100.0
45864;BME280;31579;52.354;16.974;2022-11-15T04:49:08;476.4;;;-146.1;100.0
45864;BME280;31579;52.354;16.974;2022-11-15T04:50:12;474.4;;;-146.1;100.0
45864;BME280;31579;52.354;16.974;2022-11-15T04:51:16;380.6;;;-146.1;100.0
45864;BME280;31579;52.354;16.974;2022-11-15T04:52:19;419.8;;;-146.1;100.0
45864;BME280;31579;52.354;16.974;2022-11-15T04:53:22;435.1;;;-146.1;100.0
45864;BME280;31579;52.354;16.974;2022-11-15T04:54:25;443.1;;;-146.1;100.0
45864;BME280;31579;52.354;16.974;2022-11-15T04:55:29;454.7;;;-146.1;100.0
45864;BME280;31579;52.354;16.974;2022-11-15T04:56:32;461.6;;;-146.1;100.0
45864;BME280;31579;52.354;16.974;2022-11-15T04:57:35;467.8;;;-146.1;100.0
45864;BME280;31579;52.354;16.974;2022-11-15T04:58:39;379.6;;;-146.1;100.0
45864;BME280;31579;52.354;16.974;2022-11-15T04:59:43;346.4;;;-146.1;100.0
45864;BME280;31579;52.354;16.974;2022-11-15T05:00:47;332.5;;;-146.1;100.0
45864;BME280;31579;52.354;16.974;2022-11-15T05:01:50;363.6;;;-146.1;100.0
45864;BME280;31579;52.354;16.974;2022-11-15T05:02:54;336.1;;;-146.1;100.0
45864;BME280;31579;52.354;16.974;2022-11-15T05:03:57;363.6;;;-146.1;100.0
45864;BME280;31579;52.354;16.974;2022-11-15T05:05:00;395.3;;;-146.1;100.0
45864;BME280;31579;52.354;16.974;2022-11-15T05:06:03;422.7;;;-146.1;100.0
45864;BME280;31579;52.354;16.974;2022-11-15T05:07:06;445.4;;;-146.1;100.0
45864;BME280;31579;52.354;16.974;2022-11-15T05:08:09;462.0;;;-146.1;100.0
45864;BME280;31579;52.354;16.974;2022-11-15T05:09:12;472.7;;;-146.1;100.0
45864;BME280;31579;52.354;16.974;2022-11-15T05:10:16;391.6;;;-146.1;100.0
45864;BME280;31579;52.354;16.974;2022-11-15T05:11:19;448.4;;;-146.1;100.0
45864;BME280;31579;52.354;16.974;2022-11-15T05:12:23;472.3;;;-146.1;100.0
45864;BME280;31579;52.354;16.974;2022-11-15T05:13:26;481.9;;;-146.1;100.0
45864;BME280;31579;52.354;16.974;2022-11-15T05:14:29;487.9;;;-146.1;100.0
45864;BME280;31579;52.354;16.974;2022-11-15T05:15:33;415.0;;;-146.1;100.0
45864;BME280;31579;52.354;16.974;2022-11-15T05:16:36;462.9;;;-146.1;100.0
45864;BME280;31579;52.354;16.974;2022-11-15T05:17:40;478.8;;;-146.1;100.0
45864;BME280;31579;52.354;16.974;2022-11-15T05:18:43;485.7;;;-146.1;100.0
45864;BME280;31579;52.354;16.974;2022-11-15T05:19:46;491.7;;;-146.1;100.0
45864;BME280;31579;52.354;16.974;2022-11-15T05:20:49;493.9;;;-146.1;100.0
45864;BME280;31579;52.354;16.974;2022-11-15T05:21:53;435.5;;;-146.1;100.0
45864;BME280;31579;52.354;16.974;2022-11-15T05:22:56;480.0;;;-146.1;100.0
45864;BME280;31579;52.354;16.974;2022-11-15T05:23:59;488.3;;;-146.1;100.0
45864;BME280;31579;52.354;16.974;2022-11-15T05:25:01;505.5;;;-146.1;100.0
45864;BME280;31579;52.354;16.974;2022-11-15T05:26:06;484.3;;;-146.1;100.0
45864;BME280;31579;52.354;16.974;2022-11-15T05:27:09;496.7;;;-146.1;100.0
45864;BME280;31579;52.354;16.974;2022-11-15T05:28:12;498.3;;;-146.1;100.0
45864;BME280;31579;52.354;16.974;2022-11-15T05:29:15;499.5;;;-146.1;100.0
45864;BME280;31579;52.354;16.974;2022-11-15T05:30:18;500.1;;;-146.1;100.0
45864;BME280;31579;52.354;16.974;2022-11-15T05:31:22;463.3;;;-146.1;100.0
45864;BME280;31579;52.354;16.974;2022-11-15T05:32:26;413.7;;;-146.1;100.0
45864;BME280;31579;52.354;16.974;2022-11-15T05:33:29;467.8;;;-146.1;100.0
45864;BME280;31579;52.354;16.974;2022-11-15T05:34:33;387.9;;;-146.1;100.0
45864;BME280;31579;52.354;16.974;2022-11-15T05:35:38;444.4;;;-146.1;100.0
45864;BME280;31579;52.354;16.974;2022-11-15T05:36:42;458.6;;;-146.1;100.0
45864;BME280;31579;52.354;16.974;2022-11-15T05:37:42;465.1;;;-146.1;100.0
45864;BME280;31579;52.354;16.974;2022-11-15T05:38:46;377.0;;;-146.1;100.0
45864;BME280;31579;52.354;16.974;2022-11-15T05:39:49;416.4;;;-146.1;100.0
45864;BME280;31579;52.354;16.974;2022-11-15T05:40:52;434.2;;;-146.1;100.0
45864;BME280;31579;52.354;16.974;2022-11-15T05:41:56;443.2;;;-146.1;100.0
45864;BME280;31579;52.354;16.974;2022-11-15T05:42:58;451.3;;;-146.1;100.0
45864;BME280;31579;52.354;16.974;2022-11-15T05:44:02;372.3;;;-146.1;100.0
45864;BME280;31579;52.354;16.974;2022-11-15T05:45:05;394.4;;;-146.1;100.0
45864;BME280;31579;52.354;16.974;2022-11-15T05:46:09;423.2;;;-146.1;100.0
45864;BME280;31579;52.354;16.974;2022-11-15T05:47:14;442.7;;;-146.1;100.0
45864;BME280;31579;52.354;16.974;2022-11-15T05:48:16;454.2;;;-146.1;100.0
45864;BME280;31579;52.354;16.974;2022-11-15T05:49:29;416.6;;;-146.1;100.0
45864;BME280;31579;52.354;16.974;2022-11-15T05:50:31;301.0;;;-146.1;100.0
45864;BME280;31579;52.354;16.974;2022-11-15T05:51:34;324.3;;;-146.1;100.0
45864;BME280;31579;52.354;16.974;2022-11-15T05:52:37;347.4;;;-146.1;100.0
45864;BME280;31579;52.354;16.974;2022-11-15T05:53:40;367.0;;;-146.1;100.0
45864;BME280;31579;52.354;16.974;2022-11-15T05:54:43;388.2;;;-146.1;100.0
45864;BME280;31579;52.354;16.974;2022-11-15T05:55:46;410.7;;;-146.1;100.0
45864;BME280;31579;52.354;16.974;2022-11-15T05:56:50;365.5;;;-146.1;100.0
45864;BME280;31579;52.354;16.974;2022-11-15T05:57:53;386.9;;;-146.1;100.0
45864;BME280;31579;52.354;16.974;2022-11-15T05:58:56;415.8;;;-146.1;100.0
45864;BME280;31579;52.354;16.974;2022-11-15T06:00:00;367.2;;;-146.1;100.0
45864;BME280;31579;52.354;16.974;2022-11-15T06:01:03;391.3;;;-146.1;100.0
45864;BME280;31579;52.354;16.974;2022-11-15T06:02:06;416.1;;;-146.1;100.0
45864;BME280;31579;52.354;16.974;2022-11-15T06:03:09;437.0;;;-146.1;100.0
45864;BME280;31579;52.354;16.974;2022-11-15T06:04:12;453.1;;;-146.1;100.0
45864;BME280;31579;52.354;16.974;2022-11-15T06:05:15;467.3;;;-146.1;100.0
45864;BME280;31579;52.354;16.974;2022-11-15T06:06:18;477.4;;;-146.1;100.0
45864;BME280;31579;52.354;16.974;2022-11-15T06:07:22;403.2;;;-146.1;100.0
45864;BME280;31579;52.354;16.974;2022-11-15T06:08:25;453.4;;;-146.1;100.0
45864;BME280;31579;52.354;16.974;2022-11-15T06:09:29;383.2;;;-146.1;100.0
45864;BME280;31579;52.354;16.974;2022-11-15T06:10:32;429.9;;;-146.1;100.0
45864;BME280;31579;52.354;16.974;2022-11-15T06:11:35;453.1;;;-146.1;100.0
45864;BME280;31579;52.354;16.974;2022-11-15T06:12:38;465.6;;;-146.1;100.0
45864;BME280;31579;52.354;16.974;2022-11-15T06:13:41;473.1;;;-146.1;100.0
45864;BME280;31579;52.354;16.974;2022-11-15T06:14:45;391.9;;;-146.1;100.0
45864;BME280;31579;52.354;16.974;2022-11-15T06:15:48;431.9;;;-146.1;100.0
45864;BME280;31579;52.354;16.974;2022-11-15T06:16:51;446.7;;;-146.1;100.0
45864;BME280;31579;52.354;16.974;2022-11-15T06:18:57;471.9;;;-146.1;100.0
45864;BME280;31579;52.354;16.974;2022-11-15T06:20:01;391.4;;;-146.1;100.0
45864;BME280;31579;52.354;16.974;2022-11-15T06:21:04;440.3;;;-146.1;100.0
45864;BME280;31579;52.354;16.974;2022-11-15T06:22:08;378.0;;;-146.1;100.0
45864;BME280;31579;52.354;16.974;2022-11-15T06:23:11;425.0;;;-146.1;100.0
45864;BME280;31579;52.354;16.974;2022-11-15T06:24:15;365.6;;;-146.1;100.0
45864;BME280;31579;52.354;16.974;2022-11-15T06:25:18;401.8;;;-146.1;100.0
45864;BME280;31579;52.354;16.974;2022-11-15T06:26:21;432.5;;;-146.1;100.0
45864;BME280;31579;52.354;16.974;2022-11-15T06:27:24;454.5;;;-146.1;100.0
45864;BME280;31579;52.354;16.974;2022-11-15T06:28:31;466.6;;;-146.1;100.0
45864;BME280;31579;52.354;16.974;2022-11-15T06:29:30;474.2;;;-146.1;100.0
45864;BME280;31579;52.354;16.974;2022-11-15T06:30:33;478.8;;;-146.1;100.0
45864;BME280;31579;52.354;16.974;2022-11-15T06:31:36;482.5;;;-146.1;100.0
45864;BME280;31579;52.354;16.974;2022-11-15T06:32:40;403.7;;;-146.1;100.0
45864;BME280;31579;52.354;16.974;2022-11-15T06:33:43;446.6;;;-146.1;100.0
45864;BME280;31579;52.354;16.974;2022-11-15T06:34:46;465.3;;;-146.1;100.0
45864;BME280;31579;52.354;16.974;2022-11-15T06:35:49;471.6;;;-146.1;100.0
45864;BME280;31579;52.354;16.974;2022-11-15T06:36:52;478.8;;;-146.1;100.0